AJC8008 CYMX-EHAM
Flight info
| Callsign | AJC8008 |
|---|---|
| Flight time | N/A |
| Altitude | 37000 |
| Route | ANTEG DCT OBRON DCT MOBUB DCT EBMOS DCT IMORI DCT MIILS N371B JOOPY/M083F370 DCT 49N050W 51N040W 52N030W 52N020W DCT LIMRI/N0473F370 DCT XETBO DCT UNBEG DCT DAP DCT LIFFY UL975 WAL M16 DOLAS L603 LAMSO |
| Aircraft | B77L/H-SDE1E2E3FGHIJ2J3J4J5M1RWXY/LB1D1 |
Departure
| Time | 2026-05-04 20:13 |
|---|---|
| Airport | Montreal Mirabel International Airport (CYMX) |
Arrival
| Time | N/A |
|---|---|
| Airport | Amsterdam Airport Schiphol (EHAM) |
| Time | Latitude | Longitude | Altitude | Speed | Heading |
|---|---|---|---|---|---|
| 2026-05-04 19:55 | 45.67759 | -74.04294 | 279 ft | 0 kts | 76° |
| 2026-05-04 20:05 | 45.67759 | -74.04295 | 277 ft | 0 kts | 77° |
| 2026-05-04 20:05 | 45.67758 | -74.04303 | 277 ft | 3 kts | 90° |
| 2026-05-04 20:05 | 45.67759 | -74.04330 | 280 ft | 3 kts | 97° |
| 2026-05-04 20:05 | 45.67762 | -74.04357 | 282 ft | 3 kts | 97° |
| 2026-05-04 20:06 | 45.67764 | -74.04383 | 279 ft | 3 kts | 97° |
| 2026-05-04 20:06 | 45.67766 | -74.04400 | 282 ft | 0 kts | 83° |
| 2026-05-04 20:08 | 45.67766 | -74.04403 | 277 ft | 0 kts | 78° |
| 2026-05-04 20:09 | 45.67762 | -74.04378 | 277 ft | 7 kts | 115° |
| 2026-05-04 20:09 | 45.67704 | -74.04337 | 277 ft | 12 kts | 160° |
| 2026-05-04 20:09 | 45.67611 | -74.04316 | 277 ft | 16 kts | 181° |
| 2026-05-04 20:09 | 45.67489 | -74.04338 | 277 ft | 20 kts | 188° |
| 2026-05-04 20:10 | 45.67340 | -74.04364 | 277 ft | 22 kts | 184° |
| 2026-05-04 20:10 | 45.67174 | -74.04400 | 277 ft | 24 kts | 189° |
| 2026-05-04 20:10 | 45.67059 | -74.04311 | 277 ft | 22 kts | 101° |
| 2026-05-04 20:10 | 45.67001 | -74.04175 | 278 ft | 10 kts | 168° |
| 2026-05-04 20:11 | 45.66915 | -74.04173 | 278 ft | 15 kts | 181° |
| 2026-05-04 20:11 | 45.66792 | -74.04191 | 278 ft | 20 kts | 192° |
| 2026-05-04 20:11 | 45.66675 | -74.04237 | 279 ft | 20 kts | 199° |
| 2026-05-04 20:11 | 45.66603 | -74.04370 | 278 ft | 13 kts | 275° |
| 2026-05-04 20:12 | 45.66603 | -74.04375 | 278 ft | 0 kts | 278° |
| 2026-05-04 20:12 | 45.66636 | -74.04707 | 277 ft | 88 kts | 277° |
| 2026-05-04 20:12 | 45.66773 | -74.06119 | 337 ft | 187 kts | 279° |
| 2026-05-04 20:13 | 45.67024 | -74.08014 | 1357 ft | 191 kts | 277° |
| 2026-05-04 20:13 | 45.67251 | -74.09836 | 3045 ft | 184 kts | 277° |
| 2026-05-04 20:13 | 45.67502 | -74.11773 | 3519 ft | 211 kts | 278° |
| 2026-05-04 20:13 | 45.67777 | -74.13845 | 3631 ft | 214 kts | 278° |
| 2026-05-04 20:14 | 45.67783 | -74.15961 | 4397 ft | 216 kts | 253° |
| 2026-05-04 20:14 | 45.66980 | -74.17753 | 5457 ft | 221 kts | 223° |
| 2026-05-04 20:14 | 45.65561 | -74.18677 | 6438 ft | 234 kts | 194° |
| 2026-05-04 20:14 | 45.63874 | -74.18443 | 7244 ft | 257 kts | 165° |
| 2026-05-04 20:15 | 45.62339 | -74.16992 | 8101 ft | 277 kts | 136° |
| 2026-05-04 20:15 | 45.61325 | -74.14569 | 8882 ft | 293 kts | 108° |
| 2026-05-04 20:15 | 45.61110 | -74.11669 | 9712 ft | 298 kts | 79° |
| 2026-05-04 20:15 | 45.61680 | -74.08853 | 10518 ft | 295 kts | 62° |
| 2026-05-04 20:16 | 45.62585 | -74.06150 | 11039 ft | 313 kts | 57° |
| 2026-05-04 20:16 | 45.63648 | -74.03327 | 11328 ft | 342 kts | 57° |
| 2026-05-04 20:16 | 45.64844 | -74.00218 | 11593 ft | 372 kts | 57° |
| 2026-05-04 20:16 | 45.66133 | -73.96841 | 11872 ft | 400 kts | 58° |
| 2026-05-04 20:17 | 45.67466 | -73.93280 | 12685 ft | 412 kts | 58° |
| 2026-05-04 20:17 | 45.68821 | -73.89608 | 13620 ft | 420 kts | 59° |
| 2026-05-04 20:17 | 45.70177 | -73.85897 | 14561 ft | 424 kts | 59° |
| 2026-05-04 20:17 | 45.71524 | -73.82189 | 15521 ft | 427 kts | 59° |
| 2026-05-04 20:18 | 45.72902 | -73.78393 | 16449 ft | 432 kts | 59° |
| 2026-05-04 20:18 | 45.74291 | -73.74559 | 17344 ft | 438 kts | 58° |
| 2026-05-04 20:18 | 45.75700 | -73.70668 | 18190 ft | 443 kts | 58° |
| 2026-05-04 20:18 | 45.77128 | -73.66721 | 18968 ft | 447 kts | 58° |
| 2026-05-04 20:19 | 45.78563 | -73.62747 | 19779 ft | 451 kts | 58° |
| 2026-05-04 20:19 | 45.80003 | -73.58751 | 20569 ft | 455 kts | 58° |
| 2026-05-04 20:19 | 45.81453 | -73.54727 | 21328 ft | 459 kts | 58° |
| 2026-05-04 20:19 | 45.82922 | -73.50642 | 22102 ft | 464 kts | 58° |
| 2026-05-04 20:20 | 45.84408 | -73.46507 | 22858 ft | 468 kts | 58° |
| 2026-05-04 20:20 | 45.85984 | -73.42411 | 23533 ft | 470 kts | 53° |
| 2026-05-04 20:20 | 45.87830 | -73.38549 | 24137 ft | 470 kts | 47° |
| 2026-05-04 20:20 | 45.89906 | -73.35017 | 24748 ft | 468 kts | 40° |
| 2026-05-04 20:21 | 45.92178 | -73.31663 | 25370 ft | 470 kts | 39° |
| 2026-05-04 20:21 | 45.94460 | -73.28283 | 25996 ft | 474 kts | 40° |
| 2026-05-04 20:21 | 45.99018 | -73.21330 | 27201 ft | 481 kts | 40° |
| 2026-05-04 20:22 | 46.01274 | -73.17835 | 27762 ft | 485 kts | 40° |
| 2026-05-04 20:22 | 46.03574 | -73.14263 | 28318 ft | 488 kts | 40° |
| 2026-05-04 20:22 | 46.05888 | -73.10669 | 28852 ft | 492 kts | 40° |
| 2026-05-04 20:22 | 46.08205 | -73.07067 | 29566 ft | 490 kts | 40° |
| 2026-05-04 20:23 | 46.10491 | -73.03511 | 30152 ft | 489 kts | 40° |
| 2026-05-04 20:23 | 46.12780 | -72.99954 | 30695 ft | 488 kts | 39° |
| 2026-05-04 20:23 | 46.14947 | -72.96584 | 31153 ft | 489 kts | 39° |
| 2026-05-04 20:23 | 46.17188 | -72.92881 | 31590 ft | 495 kts | 44° |
| 2026-05-04 20:24 | 46.19212 | -72.88820 | 32039 ft | 502 kts | 51° |
| 2026-05-04 20:24 | 46.21030 | -72.84500 | 32509 ft | 504 kts | 52° |
| 2026-05-04 20:24 | 46.22809 | -72.80138 | 32978 ft | 504 kts | 52° |
| 2026-05-04 20:24 | 46.24579 | -72.75769 | 33443 ft | 504 kts | 52° |
| 2026-05-04 20:25 | 46.26359 | -72.71395 | 33874 ft | 504 kts | 52° |
| 2026-05-04 20:25 | 46.28142 | -72.67043 | 34257 ft | 505 kts | 53° |
| 2026-05-04 20:25 | 46.29941 | -72.62679 | 34567 ft | 506 kts | 53° |
| 2026-05-04 20:25 | 46.31746 | -72.58312 | 34933 ft | 506 kts | 53° |
| 2026-05-04 20:26 | 46.33527 | -72.54001 | 35288 ft | 506 kts | 53° |
| 2026-05-04 20:26 | 46.35328 | -72.49637 | 35652 ft | 506 kts | 54° |
| 2026-05-04 20:26 | 46.37135 | -72.45253 | 35969 ft | 507 kts | 54° |
| 2026-05-04 20:26 | 46.38937 | -72.40868 | 36308 ft | 507 kts | 54° |
| 2026-05-04 20:27 | 46.40737 | -72.36480 | 36650 ft | 507 kts | 55° |
| 2026-05-04 20:27 | 46.42548 | -72.32061 | 36750 ft | 511 kts | 55° |
| 2026-05-04 20:27 | 46.46177 | -72.23176 | 36754 ft | 511 kts | 55° |
| 2026-05-04 20:28 | 46.49762 | -72.14364 | 36758 ft | 505 kts | 55° |
| 2026-05-04 20:28 | 46.53330 | -72.05580 | 36768 ft | 504 kts | 56° |
| 2026-05-04 20:29 | 46.56760 | -71.97090 | 36761 ft | 504 kts | 56° |
| 2026-05-04 20:29 | 46.60291 | -71.88263 | 36780 ft | 505 kts | 56° |
| 2026-05-04 20:30 | 46.63819 | -71.79416 | 36773 ft | 506 kts | 56° |
| 2026-05-04 20:30 | 46.67352 | -71.70541 | 36767 ft | 507 kts | 57° |
| 2026-05-04 20:31 | 46.70114 | -71.61048 | 36772 ft | 514 kts | 71° |
| 2026-05-04 20:31 | 46.71323 | -71.50825 | 36799 ft | 518 kts | 83° |
| 2026-05-04 20:32 | 46.71840 | -71.40348 | 36775 ft | 519 kts | 84° |
| 2026-05-04 20:32 | 46.72328 | -71.29846 | 36774 ft | 520 kts | 84° |
| 2026-05-04 20:33 | 46.72863 | -71.19314 | 36762 ft | 521 kts | 84° |
| 2026-05-04 20:33 | 46.73419 | -71.08788 | 36770 ft | 520 kts | 84° |
| 2026-05-04 20:34 | 46.73953 | -70.98605 | 36768 ft | 520 kts | 84° |
| 2026-05-04 20:34 | 46.74492 | -70.88098 | 36772 ft | 520 kts | 84° |
| 2026-05-04 20:35 | 46.75018 | -70.77592 | 36769 ft | 520 kts | 84° |
| 2026-05-04 20:35 | 46.75533 | -70.67075 | 36757 ft | 520 kts | 84° |
| 2026-05-04 20:36 | 46.76035 | -70.56665 | 36750 ft | 520 kts | 84° |
| 2026-05-04 20:36 | 46.76532 | -70.46140 | 36758 ft | 521 kts | 85° |
| 2026-05-04 20:37 | 46.77020 | -70.35603 | 36739 ft | 521 kts | 85° |
| 2026-05-04 20:37 | 46.77500 | -70.25046 | 36734 ft | 521 kts | 85° |
| 2026-05-04 20:38 | 46.77969 | -70.14487 | 36742 ft | 521 kts | 85° |
| 2026-05-04 20:38 | 46.78426 | -70.04001 | 36744 ft | 522 kts | 85° |
| 2026-05-04 20:39 | 46.78863 | -69.93748 | 36728 ft | 522 kts | 85° |
| 2026-05-04 20:39 | 46.79304 | -69.83181 | 36727 ft | 522 kts | 85° |
| 2026-05-04 20:40 | 46.79735 | -69.72619 | 36730 ft | 522 kts | 85° |
| 2026-05-04 20:40 | 46.80156 | -69.62047 | 36729 ft | 522 kts | 86° |
| 2026-05-04 20:41 | 46.80568 | -69.51469 | 36731 ft | 522 kts | 86° |
| 2026-05-04 20:41 | 46.80968 | -69.40963 | 36723 ft | 522 kts | 86° |
| 2026-05-04 20:42 | 46.81359 | -69.30396 | 36725 ft | 521 kts | 86° |
| 2026-05-04 20:42 | 46.81744 | -69.19756 | 36723 ft | 521 kts | 86° |
| 2026-05-04 20:43 | 46.82115 | -69.09259 | 36722 ft | 521 kts | 86° |
| 2026-05-04 20:43 | 46.82467 | -68.98994 | 36723 ft | 521 kts | 86° |
| 2026-05-04 20:44 | 46.82820 | -68.88422 | 36723 ft | 521 kts | 86° |
| 2026-05-04 20:44 | 46.83164 | -68.77851 | 36717 ft | 521 kts | 86° |
| 2026-05-04 20:45 | 46.83497 | -68.67275 | 36716 ft | 521 kts | 86° |
| 2026-05-04 20:45 | 46.83820 | -68.56762 | 36716 ft | 522 kts | 87° |
| 2026-05-04 20:46 | 46.84134 | -68.46185 | 36738 ft | 522 kts | 87° |
| 2026-05-04 20:46 | 46.84439 | -68.35595 | 36713 ft | 522 kts | 87° |
| 2026-05-04 20:47 | 46.84735 | -68.25000 | 36703 ft | 522 kts | 87° |
| 2026-05-04 20:47 | 46.85020 | -68.14403 | 36695 ft | 522 kts | 87° |
| 2026-05-04 20:48 | 46.85296 | -68.03798 | 36692 ft | 522 kts | 88° |
| 2026-05-04 20:48 | 46.85555 | -67.93488 | 36695 ft | 523 kts | 88° |
| 2026-05-04 20:49 | 46.85810 | -67.82942 | 36692 ft | 523 kts | 88° |
| 2026-05-04 20:49 | 46.86058 | -67.72307 | 36704 ft | 524 kts | 88° |